Time;durP1;ratioP1;P1;durP2;ratioP2;P2;SDS_P1;SDS_P2;PMS_P1;PMS_P2;Temp;Humidity;BMP_temperature;BMP_pressure;BME280_temperature;BME280_humidity;BME280_pressure;Samples;Min_cycle;Max_cycle;Signal;HPM_P1;HPM_P2
2022/09/21 00:02:25;;;;;;;;;;;12.10;90.20;;;;;;5046911;28;19967;-68
2022/09/21 00:04:50;;;;;;;;;;;12.10;90.20;;;;;;5044900;28;19917;-68
2022/09/21 00:07:16;;;;;;;;;;;12.10;90.20;;;;;;5046564;28;20007;-68
2022/09/21 00:09:41;;;;;;;;;;;12.10;90.20;;;;;;5044755;28;20340;-68
2022/09/21 00:12:08;;;;;;;;;;;12.00;90.20;;;;;;5046848;28;19956;-68
2022/09/21 00:14:33;;;;;;;;;;;12.00;90.20;;;;;;5044598;28;19963;-68
2022/09/21 00:16:59;;;;;;;;;;;12.00;90.20;;;;;;5046658;28;20003;-68
2022/09/21 00:19:24;;;;;;;;;;;12.00;90.10;;;;;;5044115;28;19932;-68
2022/09/21 00:21:53;;;;;;;;;;;12.00;90.10;;;;;;5046193;28;20085;-67
2022/09/21 00:24:18;;;;;;;;;;;11.90;90.10;;;;;;5040057;28;19971;-69
2022/09/21 00:26:43;;;;;;;;;;;12.00;90.20;;;;;;5046807;28;20636;-68
2022/09/21 00:29:09;;;;;;;;;;;11.90;90.10;;;;;;5046101;28;19993;-68
2022/09/21 00:31:34;;;;;;;;;;;11.90;90.10;;;;;;5043526;28;19917;-69
2022/09/21 00:34:02;;;;;;;;;;;11.90;90.10;;;;;;5046490;28;19913;-67
2022/09/21 00:36:28;;;;;;;;;;;11.90;90.10;;;;;;5044372;28;19917;-68
2022/09/21 00:38:55;;;;;;;;;;;11.90;90.10;;;;;;5046488;28;20385;-67
2022/09/21 00:41:21;;;;;;;;;;;11.90;90.10;;;;;;5043246;28;20564;-67
2022/09/21 00:44:15;;;;;;;;;;;11.90;90.10;;;;;;5046517;28;19917;-68
2022/09/21 00:46:42;;;;;;;;;;;11.90;90.10;;;;;;5026816;28;20395;-67
2022/09/21 00:49:07;;;;;;;;;;;11.80;90.10;;;;;;5046137;28;19947;-67
2022/09/21 00:51:33;;;;;;;;;;;11.80;90.10;;;;;;5043554;28;19951;-67
2022/09/21 00:54:06;;;;;;;;;;;11.80;90.10;;;;;;5032062;28;19913;-68
2022/09/21 00:56:32;;;;;;;;;;;11.80;90.10;;;;;;5044372;28;20016;-67
2022/09/21 00:58:58;;;;;;;;;;;11.80;90.10;;;;;;5046069;28;19967;-67
2022/09/21 01:01:24;;;;;;;;;;;11.80;90.10;;;;;;5043210;28;20004;-67
2022/09/21 01:03:51;;;;;;;;;;;11.80;90.10;;;;;;5046234;28;19913;-68
2022/09/21 01:06:18;;;;;;;;;;;11.80;90.10;;;;;;5043050;28;19928;-67
2022/09/21 01:08:44;;;;;;;;;;;11.70;90.10;;;;;;5046571;28;20692;-67
2022/09/21 01:11:09;;;;;;;;;;;11.70;90.10;;;;;;5041357;28;19912;-67
2022/09/21 01:13:50;;;;;;;;;;;11.70;90.10;;;;;;5046360;28;19912;-67
2022/09/21 01:16:17;;;;;;;;;;;11.70;90.10;;;;;;5042417;28;19913;-67
2022/09/21 01:18:47;;;;;;;;;;;11.70;90.10;;;;;;5044826;28;19913;-67
2022/09/21 01:21:17;;;;;;;;;;;11.70;90.10;;;;;;5044532;28;19920;-67
2022/09/21 01:23:46;;;;;;;;;;;11.70;90.10;;;;;;5042500;28;19923;-67
2022/09/21 01:26:30;;;;;;;;;;;11.60;90.10;;;;;;5044812;28;19966;-68
2022/09/21 01:28:56;;;;;;;;;;;11.60;90.10;;;;;;5042251;28;19917;-67
2022/09/21 01:31:25;;;;;;;;;;;11.60;90.10;;;;;;5043343;28;19920;-67
2022/09/21 01:33:53;;;;;;;;;;;11.60;90.10;;;;;;5029649;28;19917;-67
2022/09/21 01:36:21;;;;;;;;;;;11.60;90.10;;;;;;5042789;28;19939;-68
2022/09/21 01:38:55;;;;;;;;;;;11.60;90.10;;;;;;5039893;28;19952;-67
2022/09/21 01:41:22;;;;;;;;;;;11.50;90.10;;;;;;5044465;28;20332;-67
2022/09/21 01:43:56;;;;;;;;;;;11.60;90.10;;;;;;5042854;28;19921;-67
2022/09/21 01:46:24;;;;;;;;;;;11.50;90.10;;;;;;5044896;28;20011;-67
2022/09/21 01:48:53;;;;;;;;;;;11.50;90.10;;;;;;5042930;28;19917;-67
2022/09/21 01:51:20;;;;;;;;;;;11.50;90.10;;;;;;5044514;28;20277;-67
2022/09/21 01:54:08;;;;;;;;;;;11.50;90.10;;;;;;5043123;28;20054;-68
2022/09/21 01:56:42;;;;;;;;;;;11.50;90.10;;;;;;5043023;28;19956;-68
2022/09/21 01:59:20;;;;;;;;;;;11.50;90.10;;;;;;5042081;28;19921;-67
2022/09/21 02:01:57;;;;;;;;;;;11.40;90.00;;;;;;5043129;28;19912;-68
2022/09/21 02:04:22;;;;;;;;;;;11.50;90.10;;;;;;5041753;28;20678;-67
2022/09/21 02:06:49;;;;;;;;;;;11.40;90.00;;;;;;5044556;28;19916;-67
2022/09/21 02:09:16;;;;;;;;;;;11.40;90.00;;;;;;5042768;28;20008;-67
2022/09/21 02:11:42;;;;;;;;;;;11.40;90.10;;;;;;5044023;28;20023;-68
2022/09/21 02:14:13;;;;;;;;;;;11.40;90.00;;;;;;5042452;28;20060;-67
2022/09/21 02:16:41;;;;;;;;;;;11.40;90.00;;;;;;5045022;28;20400;-67
2022/09/21 02:19:10;;;;;;;;;;;11.40;90.00;;;;;;5042994;28;19920;-67
2022/09/21 02:21:54;;;;;;;;;;;11.30;90.00;;;;;;5043677;28;20050;-67
2022/09/21 02:24:25;;;;;;;;;;;11.30;90.00;;;;;;5042782;28;19924;-67
2022/09/21 02:27:00;;;;;;;;;;;11.30;90.00;;;;;;5044414;28;19967;-67
2022/09/21 02:29:38;;;;;;;;;;;11.30;90.00;;;;;;5042182;28;19921;-67
2022/09/21 02:32:09;;;;;;;;;;;11.30;90.00;;;;;;5044349;28;19912;-67
2022/09/21 02:34:35;;;;;;;;;;;11.30;90.00;;;;;;5042269;28;19917;-67
2022/09/21 02:37:09;;;;;;;;;;;11.30;90.00;;;;;;5044230;28;19970;-68
2022/09/21 02:39:41;;;;;;;;;;;11.30;89.90;;;;;;5041939;28;19956;-68
2022/09/21 02:42:15;;;;;;;;;;;11.30;90.00;;;;;;5044366;28;19920;-68
2022/09/21 02:44:51;;;;;;;;;;;11.20;89.90;;;;;;5045724;28;19916;-68
2022/09/21 02:47:49;;;;;;;;;;;11.20;89.90;;;;;;5044670;28;19924;-68
2022/09/21 02:50:22;;;;;;;;;;;11.20;89.90;;;;;;5007408;28;19917;-67
2022/09/21 02:52:47;;;;;;;;;;;11.20;89.90;;;;;;5042511;28;19921;-68
2022/09/21 02:55:15;;;;;;;;;;;11.20;89.80;;;;;;5041398;28;20635;-67
2022/09/21 02:57:41;;;;;;;;;;;11.20;89.90;;;;;;5043390;28;19924;-68
2022/09/21 03:00:07;;;;;;;;;;;11.10;89.80;;;;;;5044326;28;19912;-67
2022/09/21 03:02:36;;;;;;;;;;;11.10;89.90;;;;;;5041150;28;20492;-68
2022/09/21 03:05:02;;;;;;;;;;;11.10;89.90;;;;;;5043675;28;20039;-67
2022/09/21 03:07:27;;;;;;;;;;;11.10;89.90;;;;;;5029245;28;20649;-67
2022/09/21 03:09:53;;;;;;;;;;;11.10;90.20;;;;;;5043847;28;19913;-68
2022/09/21 03:12:19;;;;;;;;;;;11.10;89.80;;;;;;5041145;28;20031;-68
2022/09/21 03:14:45;;;;;;;;;;;11.10;90.10;;;;;;5043634;28;19916;-68
2022/09/21 03:17:10;;;;;;;;;;;11.00;89.70;;;;;;5041301;28;19928;-68
2022/09/21 03:19:36;;;;;;;;;;;11.10;89.80;;;;;;5043917;28;20367;-67
2022/09/21 03:22:02;;;;;;;;;;;11.00;89.70;;;;;;5040692;28;19917;-68
2022/09/21 03:24:45;;;;;;;;;;;11.00;89.70;;;;;;5026736;28;20631;-68
2022/09/21 03:27:11;;;;;;;;;;;11.00;89.70;;;;;;5041361;28;19924;-68
2022/09/21 03:29:37;;;;;;;;;;;11.00;89.70;;;;;;5043917;28;20462;-68
2022/09/21 03:32:02;;;;;;;;;;;11.00;89.70;;;;;;5022924;28;19924;-68
2022/09/21 03:34:33;;;;;;;;;;;11.00;89.70;;;;;;5043837;28;19923;-68
2022/09/21 03:37:02;;;;;;;;;;;11.00;89.70;;;;;;5041022;28;20575;-68
2022/09/21 03:39:27;;;;;;;;;;;10.90;89.60;;;;;;5039848;28;20414;-67
2022/09/21 03:41:55;;;;;;;;;;;11.00;89.70;;;;;;5041449;28;19971;-67
2022/09/21 03:44:22;;;;;;;;;;;10.90;89.60;;;;;;5047030;28;19986;-68
2022/09/21 03:46:47;;;;;;;;;;;10.90;89.60;;;;;;5046877;28;19923;-68
2022/09/21 03:49:13;;;;;;;;;;;10.90;89.60;;;;;;5045250;28;20533;-68
2022/09/21 03:51:38;;;;;;;;;;;10.90;89.60;;;;;;5028557;28;19966;-67
2022/09/21 03:54:04;;;;;;;;;;;10.90;89.50;;;;;;5044670;28;19920;-67
2022/09/21 03:56:29;;;;;;;;;;;10.90;89.50;;;;;;5046830;28;19916;-67
2022/09/21 03:58:55;;;;;;;;;;;10.80;89.50;;;;;;5045306;28;19913;-68
2022/09/21 04:01:20;;;;;;;;;;;10.80;89.50;;;;;;5046907;28;19912;-68
2022/09/21 04:03:46;;;;;;;;;;;10.80;89.50;;;;;;5045266;28;19924;-68
2022/09/21 04:06:12;;;;;;;;;;;10.80;89.40;;;;;;5046679;28;20415;-67
2022/09/21 04:08:38;;;;;;;;;;;10.80;89.50;;;;;;5044539;28;19912;-68
2022/09/21 04:11:10;;;;;;;;;;;10.80;89.50;;;;;;5045969;28;20460;-68
2022/09/21 04:13:36;;;;;;;;;;;10.80;89.50;;;;;;5044644;28;19917;-68
2022/09/21 04:16:01;;;;;;;;;;;10.80;89.60;;;;;;5047036;28;19962;-67
2022/09/21 04:18:27;;;;;;;;;;;10.80;89.50;;;;;;5045072;28;19963;-68
2022/09/21 04:20:52;;;;;;;;;;;10.80;89.50;;;;;;5045940;28;19917;-67
2022/09/21 04:23:18;;;;;;;;;;;10.70;89.50;;;;;;5046324;28;19921;-67
2022/09/21 04:25:46;;;;;;;;;;;10.80;89.50;;;;;;5027368;28;19951;-67
2022/09/21 04:28:11;;;;;;;;;;;10.70;89.40;;;;;;5047015;28;20035;-68
2022/09/21 04:30:37;;;;;;;;;;;10.70;89.40;;;;;;5043184;28;19967;-67
2022/09/21 04:33:02;;;;;;;;;;;10.70;89.40;;;;;;5046653;28;19919;-67
2022/09/21 04:35:28;;;;;;;;;;;10.70;89.40;;;;;;5044005;28;20431;-68
2022/09/21 04:37:54;;;;;;;;;;;10.70;89.40;;;;;;5046032;28;20439;-67
2022/09/21 04:40:20;;;;;;;;;;;10.70;89.40;;;;;;5047935;28;19924;-67
2022/09/21 04:42:49;;;;;;;;;;;10.70;90.00;;;;;;5046260;28;19927;-67
2022/09/21 04:45:14;;;;;;;;;;;10.70;89.40;;;;;;5043002;28;19921;-67
2022/09/21 04:47:40;;;;;;;;;;;10.70;89.40;;;;;;5046531;28;20357;-68
2022/09/21 04:50:06;;;;;;;;;;;10.70;89.40;;;;;;5043483;28;19921;-67
2022/09/21 04:52:31;;;;;;;;;;;10.70;89.40;;;;;;5044229;28;20025;-67
2022/09/21 04:54:57;;;;;;;;;;;10.60;89.40;;;;;;5042653;28;20413;-67
2022/09/21 04:57:22;;;;;;;;;;;10.60;89.40;;;;;;5044933;28;19927;-68
2022/09/21 04:59:48;;;;;;;;;;;10.60;89.40;;;;;;5044589;28;19921;-68
2022/09/21 05:02:13;;;;;;;;;;;10.60;89.40;;;;;;5044276;28;19917;-68
2022/09/21 05:04:39;;;;;;;;;;;10.60;89.40;;;;;;5031995;28;20639;-67
2022/09/21 05:07:05;;;;;;;;;;;10.60;89.30;;;;;;5043149;28;19923;-67
2022/09/21 05:12:14;;;;;;;;;;;10.60;89.30;;;;;;5040861;28;19987;-67
2022/09/21 05:14:42;;;;;;;;;;;10.60;89.30;;;;;;5045801;28;19917;-68
2022/09/21 05:17:08;;;;;;;;;;;10.50;89.30;;;;;;5043169;28;19931;-67
2022/09/21 05:19:33;;;;;;;;;;;10.60;89.40;;;;;;5046225;28;19917;-67
2022/09/21 05:21:59;;;;;;;;;;;10.50;89.30;;;;;;5042182;28;20297;-67
2022/09/21 05:24:25;;;;;;;;;;;10.50;89.20;;;;;;5045716;28;19963;-68
2022/09/21 05:26:50;;;;;;;;;;;10.50;89.20;;;;;;5042687;28;20281;-67
2022/09/21 05:29:16;;;;;;;;;;;10.50;89.30;;;;;;5045577;28;20421;-68
2022/09/21 05:31:50;;;;;;;;;;;10.50;89.20;;;;;;5042484;28;19916;-67
2022/09/21 05:34:24;;;;;;;;;;;10.50;89.20;;;;;;5042488;28;20520;-68
2022/09/21 05:36:50;;;;;;;;;;;10.50;89.20;;;;;;5042702;28;19927;-68
2022/09/21 05:39:15;;;;;;;;;;;10.50;89.20;;;;;;5044623;28;19921;-67
2022/09/21 05:41:41;;;;;;;;;;;10.50;89.20;;;;;;5042697;28;20655;-68
2022/09/21 05:44:09;;;;;;;;;;;10.50;89.20;;;;;;5045432;28;19916;-68
2022/09/21 05:46:39;;;;;;;;;;;10.50;89.20;;;;;;5044946;28;20624;-68
2022/09/21 05:49:23;;;;;;;;;;;10.50;89.20;;;;;;5044642;28;19917;-68
2022/09/21 05:52:00;;;;;;;;;;;10.50;89.20;;;;;;5043305;28;19917;-68
2022/09/21 05:54:58;;;;;;;;;;;10.40;89.10;;;;;;5042441;28;19913;-68
2022/09/21 05:57:30;;;;;;;;;;;10.40;89.20;;;;;;5006247;28;19920;-68
2022/09/21 06:00:21;;;;;;;;;;;10.40;89.20;;;;;;5044220;28;20759;-67
2022/09/21 06:03:03;;;;;;;;;;;10.50;89.20;;;;;;5038671;28;19917;-68
2022/09/21 06:05:29;;;;;;;;;;;10.50;89.10;;;;;;5040419;28;19970;-68
2022/09/21 06:07:54;;;;;;;;;;;10.40;89.10;;;;;;5042772;28;19916;-68
2022/09/21 06:10:20;;;;;;;;;;;10.50;89.10;;;;;;5045430;28;19917;-68
2022/09/21 06:12:45;;;;;;;;;;;10.40;89.10;;;;;;5041899;28;19982;-68
2022/09/21 06:15:12;;;;;;;;;;;10.50;89.10;;;;;;5045134;28;19917;-68
2022/09/21 06:17:38;;;;;;;;;;;10.50;89.00;;;;;;5044364;28;20383;-67
2022/09/21 06:20:06;;;;;;;;;;;10.50;89.00;;;;;;5042253;28;19917;-68
2022/09/21 06:22:31;;;;;;;;;;;10.40;89.00;;;;;;5043847;28;19913;-68
2022/09/21 06:24:57;;;;;;;;;;;10.50;89.70;;;;;;5041647;28;19917;-68
2022/09/21 06:27:22;;;;;;;;;;;10.40;89.00;;;;;;5044774;28;20016;-68
2022/09/21 06:29:48;;;;;;;;;;;10.50;89.10;;;;;;5040895;28;19921;-68
2022/09/21 06:32:13;;;;;;;;;;;10.50;89.00;;;;;;5043880;28;19924;-68
2022/09/21 06:34:39;;;;;;;;;;;10.50;89.10;;;;;;5018923;28;20325;-68
2022/09/21 06:37:04;;;;;;;;;;;10.50;89.00;;;;;;5047036;28;20375;-67
2022/09/21 06:39:30;;;;;;;;;;;10.50;89.10;;;;;;5042150;28;20667;-68
2022/09/21 06:41:56;;;;;;;;;;;10.50;89.10;;;;;;5043765;28;19913;-68
2022/09/21 06:44:21;;;;;;;;;;;10.50;89.00;;;;;;5025188;28;19924;-68
2022/09/21 06:46:47;;;;;;;;;;;10.50;89.00;;;;;;5044183;28;19927;-68
2022/09/21 06:49:12;;;;;;;;;;;10.50;89.00;;;;;;5041946;28;19917;-68
2022/09/21 06:51:38;;;;;;;;;;;10.50;89.00;;;;;;5043854;28;19968;-68
2022/09/21 06:54:04;;;;;;;;;;;10.50;89.00;;;;;;5044306;28;20253;-68
2022/09/21 06:56:29;;;;;;;;;;;10.50;89.00;;;;;;5042002;28;19920;-68
2022/09/21 06:58:55;;;;;;;;;;;10.50;89.00;;;;;;5044656;28;19960;-68
2022/09/21 07:01:20;;;;;;;;;;;10.60;89.00;;;;;;5040987;28;19939;-67
2022/09/21 07:03:50;;;;;;;;;;;10.50;89.00;;;;;;5044645;28;19919;-68
2022/09/21 07:06:16;;;;;;;;;;;10.60;89.10;;;;;;5041836;28;19920;-68
2022/09/21 07:08:42;;;;;;;;;;;10.60;89.10;;;;;;5044566;28;19916;-68
2022/09/21 07:11:08;;;;;;;;;;;10.60;89.20;;;;;;5041208;28;19924;-68
2022/09/21 07:13:34;;;;;;;;;;;10.60;89.10;;;;;;5044314;28;19916;-68
2022/09/21 07:16:06;;;;;;;;;;;10.60;89.00;;;;;;5042121;28;19921;-68
2022/09/21 07:18:35;;;;;;;;;;;10.60;89.10;;;;;;5047922;28;19920;-68
2022/09/21 07:21:02;;;;;;;;;;;10.70;89.20;;;;;;5044586;28;19920;-68
2022/09/21 07:23:28;;;;;;;;;;;10.70;89.20;;;;;;5047826;28;20105;-68
2022/09/21 07:25:53;;;;;;;;;;;10.70;89.10;;;;;;5045462;28;20354;-68
2022/09/21 07:28:19;;;;;;;;;;;10.70;89.10;;;;;;5047872;28;19928;-68
2022/09/21 07:30:44;;;;;;;;;;;10.70;89.10;;;;;;5044665;28;19928;-68
2022/09/21 07:33:10;;;;;;;;;;;10.70;89.10;;;;;;5047645;28;19924;-68
2022/09/21 07:35:35;;;;;;;;;;;10.70;89.10;;;;;;5048018;28;19909;-68
2022/09/21 07:38:02;;;;;;;;;;;10.80;89.20;;;;;;5044503;28;19928;-68
2022/09/21 07:40:28;;;;;;;;;;;10.80;89.10;;;;;;5045873;28;19952;-68
2022/09/21 07:42:57;;;;;;;;;;;10.80;89.20;;;;;;5044411;28;20012;-68
2022/09/21 07:45:24;;;;;;;;;;;10.80;89.10;;;;;;5047777;28;19913;-68
2022/09/21 07:47:49;;;;;;;;;;;10.90;89.10;;;;;;5028244;28;19916;-68
2022/09/21 07:50:15;;;;;;;;;;;10.90;89.00;;;;;;5047400;28;19912;-67
2022/09/21 07:52:41;;;;;;;;;;;10.90;89.00;;;;;;5044134;28;19917;-68
2022/09/21 07:55:07;;;;;;;;;;;10.90;89.00;;;;;;5047311;28;20361;-68
2022/09/21 08:00:16;;;;;;;;;;;11.00;89.00;;;;;;5046032;28;19924;-67
2022/09/21 08:02:42;;;;;;;;;;;11.00;88.90;;;;;;5044181;28;19909;-67
2022/09/21 08:05:07;;;;;;;;;;;11.10;88.90;;;;;;5047479;28;19917;-67
2022/09/21 08:07:34;;;;;;;;;;;11.10;88.80;;;;;;5044380;28;19917;-67
2022/09/21 08:09:59;;;;;;;;;;;11.10;88.80;;;;;;5047204;28;19920;-67
2022/09/21 08:12:24;;;;;;;;;;;11.20;88.70;;;;;;5043703;28;19913;-67
2022/09/21 08:14:50;;;;;;;;;;;11.20;88.60;;;;;;5046933;28;19913;-67
2022/09/21 08:17:16;;;;;;;;;;;11.30;88.70;;;;;;5045779;28;19946;-68
2022/09/21 08:19:41;;;;;;;;;;;11.30;88.50;;;;;;5043880;28;19917;-68
2022/09/21 08:22:07;;;;;;;;;;;11.40;88.50;;;;;;5044031;28;19936;-67
2022/09/21 08:24:32;;;;;;;;;;;11.40;88.30;;;;;;5042725;28;19940;-67
2022/09/21 08:26:58;;;;;;;;;;;11.50;88.30;;;;;;5046465;28;20625;-67
2022/09/21 08:29:24;;;;;;;;;;;11.50;88.10;;;;;;5043456;28;19916;-67
2022/09/21 08:31:49;;;;;;;;;;;11.60;88.20;;;;;;5044471;28;19917;-67
2022/09/21 08:34:15;;;;;;;;;;;11.60;88.10;;;;;;5045126;28;19917;-67
2022/09/21 08:36:40;;;;;;;;;;;11.70;88.00;;;;;;5032651;28;19912;-67
2022/09/21 08:39:06;;;;;;;;;;;11.70;87.90;;;;;;5043743;28;19921;-67
2022/09/21 08:41:50;;;;;;;;;;;11.70;87.80;;;;;;5045384;28;20046;-67
2022/09/21 08:44:15;;;;;;;;;;;11.70;87.60;;;;;;5044252;28;19923;-67
2022/09/21 08:46:42;;;;;;;;;;;11.80;87.60;;;;;;5046056;28;19940;-67
2022/09/21 08:49:10;;;;;;;;;;;11.80;87.50;;;;;;5044399;28;20007;-70
2022/09/21 08:51:39;;;;;;;;;;;11.90;87.50;;;;;;5045494;28;19919;-70
2022/09/21 08:54:30;;;;;;;;;;;11.90;87.40;;;;;;5043723;28;20509;-70
2022/09/21 08:56:56;;;;;;;;;;;11.90;87.20;;;;;;5041450;28;19923;-70
2022/09/21 08:59:21;;;;;;;;;;;12.00;87.30;;;;;;5042301;28;19921;-70
2022/09/21 09:02:06;;;;;;;;;;;12.00;87.20;;;;;;5044874;28;20472;-70
2022/09/21 09:04:50;;;;;;;;;;;12.00;87.20;;;;;;5043536;28;19912;-70
2022/09/21 09:07:27;;;;;;;;;;;12.10;87.70;;;;;;5042847;28;19912;-70
2022/09/21 09:09:59;;;;;;;;;;;12.10;87.20;;;;;;5042100;28;19971;-70
2022/09/21 09:12:39;;;;;;;;;;;12.10;87.00;;;;;;5045096;28;19919;-70
2022/09/21 09:15:23;;;;;;;;;;;12.10;87.00;;;;;;5043263;28;19917;-70
2022/09/21 09:17:48;;;;;;;;;;;12.20;86.90;;;;;;5046026;28;20331;-70
2022/09/21 09:20:17;;;;;;;;;;;12.20;86.70;;;;;;5043622;28;19920;-70
2022/09/21 09:22:46;;;;;;;;;;;12.20;87.40;;;;;;5044665;28;19909;-70
2022/09/21 09:25:15;;;;;;;;;;;12.20;86.70;;;;;;5043655;28;20332;-70
2022/09/21 09:27:41;;;;;;;;;;;12.30;87.10;;;;;;5043428;28;19909;-70
2022/09/21 09:30:13;;;;;;;;;;;12.30;86.60;;;;;;5044202;28;20515;-70
2022/09/21 09:32:44;;;;;;;;;;;12.30;86.50;;;;;;5043422;28;20003;-71
2022/09/21 09:35:21;;;;;;;;;;;12.30;86.60;;;;;;5045785;28;19913;-70
2022/09/21 09:37:48;;;;;;;;;;;12.30;86.60;;;;;;5042017;28;19927;-70
2022/09/21 09:40:13;;;;;;;;;;;12.40;86.70;;;;;;5039297;28;19923;-70
2022/09/21 09:42:39;;;;;;;;;;;12.40;87.10;;;;;;5042491;28;19917;-70
2022/09/21 09:45:24;;;;;;;;;;;12.40;86.20;;;;;;5044931;28;19913;-70
2022/09/21 09:47:50;;;;;;;;;;;12.50;86.30;;;;;;5040720;28;20016;-70
2022/09/21 09:50:21;;;;;;;;;;;12.50;86.10;;;;;;5044187;28;20027;-70
2022/09/21 09:52:53;;;;;;;;;;;12.50;86.10;;;;;;5042036;28;20011;-70
2022/09/21 09:55:29;;;;;;;;;;;12.60;86.00;;;;;;5043981;28;19919;-70
2022/09/21 09:57:55;;;;;;;;;;;12.60;85.90;;;;;;5042319;28;20048;-70
2022/09/21 10:00:20;;;;;;;;;;;12.60;86.00;;;;;;5045129;28;20019;-67
2022/09/21 10:02:46;;;;;;;;;;;12.70;85.70;;;;;;5029532;28;19948;-68
2022/09/21 10:05:18;;;;;;;;;;;12.70;85.60;;;;;;5043641;28;20378;-68
2022/09/21 10:07:47;;;;;;;;;;;12.80;85.50;;;;;;5042215;28;19970;-67
2022/09/21 10:10:22;;;;;;;;;;;12.80;85.50;;;;;;5027453;28;19916;-68
2022/09/21 10:12:48;;;;;;;;;;;12.80;85.40;;;;;;5041473;28;19920;-67
2022/09/21 10:15:15;;;;;;;;;;;12.90;85.30;;;;;;5045023;28;19917;-67
2022/09/21 10:17:41;;;;;;;;;;;13.00;85.20;;;;;;5041845;28;19920;-67
2022/09/21 10:20:14;;;;;;;;;;;13.00;85.10;;;;;;5045234;28;19913;-67
2022/09/21 10:22:41;;;;;;;;;;;13.10;85.00;;;;;;5041261;28;20300;-68
2022/09/21 10:25:13;;;;;;;;;;;13.10;84.80;;;;;;5045717;28;19967;-67
2022/09/21 10:27:41;;;;;;;;;;;13.20;84.70;;;;;;5046428;28;19923;-67
2022/09/21 10:30:27;;;;;;;;;;;13.30;84.40;;;;;;5044961;28;19959;-67
2022/09/21 10:32:54;;;;;;;;;;;13.30;84.30;;;;;;5042457;28;19912;-67
2022/09/21 10:35:20;;;;;;;;;;;13.40;84.00;;;;;;5044136;28;20416;-67
2022/09/21 10:37:52;;;;;;;;;;;13.50;84.10;;;;;;5044572;28;19923;-67
2022/09/21 10:40:17;;;;;;;;;;;13.50;84.20;;;;;;5044188;28;20320;-67
2022/09/21 10:42:43;;;;;;;;;;;13.50;84.30;;;;;;5044243;28;19919;-68
2022/09/21 10:45:09;;;;;;;;;;;13.50;84.30;;;;;;5044589;28;19913;-67
2022/09/21 10:47:36;;;;;;;;;;;13.60;84.10;;;;;;5044501;28;20259;-68
2022/09/21 10:50:04;;;;;;;;;;;13.80;83.80;;;;;;5026327;28;19962;-67
2022/09/21 10:52:48;;;;;;;;;;;13.80;84.10;;;;;;5047742;28;19958;-68
2022/09/21 10:55:18;;;;;;;;;;;13.80;83.80;;;;;;5047300;28;19913;-68
2022/09/21 10:57:44;;;;;;;;;;;13.90;83.80;;;;;;5030319;28;20735;-68
2022/09/21 11:00:28;;;;;;;;;;;13.90;83.70;;;;;;5047848;28;20558;-68
2022/09/21 11:02:54;;;;;;;;;;;14.00;83.80;;;;;;5047450;28;19913;-67
2022/09/21 11:05:24;;;;;;;;;;;13.90;84.10;;;;;;5047977;28;19917;-67
2022/09/21 11:07:53;;;;;;;;;;;13.90;84.30;;;;;;5048265;28;19920;-67
2022/09/21 11:10:37;;;;;;;;;;;13.90;84.50;;;;;;5048174;28;19923;-67
2022/09/21 11:13:03;;;;;;;;;;;13.90;85.20;;;;;;5045358;28;20439;-67
2022/09/21 11:15:32;;;;;;;;;;;13.90;84.70;;;;;;5046728;28;19917;-67
2022/09/21 11:18:02;;;;;;;;;;;14.00;84.50;;;;;;5047885;28;19924;-67
2022/09/21 11:20:40;;;;;;;;;;;14.20;84.20;;;;;;5047693;28;19966;-68
2022/09/21 11:23:28;;;;;;;;;;;14.30;83.80;;;;;;5047833;28;19912;-67
2022/09/21 11:25:54;;;;;;;;;;;14.50;83.80;;;;;;5045578;28;19944;-67
2022/09/21 11:28:21;;;;;;;;;;;14.60;83.40;;;;;;5046762;28;20019;-67
2022/09/21 11:30:59;;;;;;;;;;;14.80;82.80;;;;;;5047795;28;20511;-67
2022/09/21 11:33:33;;;;;;;;;;;14.80;82.80;;;;;;5047579;28;20090;-67
2022/09/21 11:36:04;;;;;;;;;;;14.80;82.50;;;;;;5044231;28;19917;-67
2022/09/21 11:38:36;;;;;;;;;;;14.80;82.90;;;;;;5045900;28;20429;-67
2022/09/21 11:41:05;;;;;;;;;;;14.80;82.90;;;;;;5047278;28;19917;-66
2022/09/21 11:43:49;;;;;;;;;;;14.80;82.90;;;;;;5047564;28;20400;-67
2022/09/21 11:46:20;;;;;;;;;;;14.80;83.20;;;;;;5047507;28;19916;-67
2022/09/21 11:48:52;;;;;;;;;;;14.80;83.30;;;;;;5046907;28;20752;-67
2022/09/21 11:51:39;;;;;;;;;;;14.90;83.40;;;;;;5044489;28;19951;-67
2022/09/21 11:54:11;;;;;;;;;;;14.90;83.30;;;;;;5044766;28;19913;-67
2022/09/21 11:56:52;;;;;;;;;;;15.00;82.90;;;;;;5045555;28;19916;-67
2022/09/21 11:59:38;;;;;;;;;;;15.20;82.10;;;;;;5046890;28;19956;-67
2022/09/21 12:02:04;;;;;;;;;;;15.30;81.80;;;;;;5045476;28;19920;-67
2022/09/21 12:04:46;;;;;;;;;;;15.40;81.90;;;;;;5045826;28;19917;-67
2022/09/21 12:07:12;;;;;;;;;;;15.50;81.50;;;;;;5046435;28;19920;-67
2022/09/21 12:09:37;;;;;;;;;;;15.70;81.20;;;;;;5046244;28;19916;-67
2022/09/21 12:12:22;;;;;;;;;;;15.80;80.90;;;;;;5045613;28;19962;-67
2022/09/21 12:14:50;;;;;;;;;;;15.80;80.90;;;;;;5046075;28;19921;-67
2022/09/21 12:17:15;;;;;;;;;;;15.80;80.90;;;;;;5046094;28;20420;-67
2022/09/21 12:19:47;;;;;;;;;;;15.80;80.90;;;;;;5046335;28;19923;-67
2022/09/21 12:22:16;;;;;;;;;;;15.80;81.40;;;;;;5045810;28;20461;-67
2022/09/21 12:24:44;;;;;;;;;;;15.80;81.60;;;;;;5050496;28;20305;-67
2022/09/21 12:27:28;;;;;;;;;;;15.80;81.70;;;;;;5028881;28;19919;-67
2022/09/21 12:30:15;;;;;;;;;;;15.90;81.80;;;;;;5044422;28;20273;-67
2022/09/21 12:32:48;;;;;;;;;;;16.00;81.60;;;;;;5042378;28;19920;-67
2022/09/21 12:35:15;;;;;;;;;;;16.10;81.70;;;;;;5046508;28;19913;-67
2022/09/21 12:37:50;;;;;;;;;;;16.20;81.30;;;;;;5045914;28;19921;-67
2022/09/21 12:40:15;;;;;;;;;;;16.30;80.60;;;;;;5046572;28;19919;-67
2022/09/21 12:42:47;;;;;;;;;;;16.40;80.30;;;;;;5046359;28;19908;-67
2022/09/21 12:45:18;;;;;;;;;;;16.50;80.40;;;;;;5046715;28;19978;-67
2022/09/21 12:47:44;;;;;;;;;;;16.60;80.40;;;;;;5046147;28;19924;-67
2022/09/21 12:50:24;;;;;;;;;;;16.70;80.40;;;;;;5045046;28;19913;-67
2022/09/21 12:52:51;;;;;;;;;;;16.80;80.40;;;;;;5045067;28;20407;-67
2022/09/21 12:55:29;;;;;;;;;;;16.80;80.10;;;;;;5043534;28;19963;-68
2022/09/21 12:57:55;;;;;;;;;;;16.90;80.00;;;;;;5041552;28;19921;-67
2022/09/21 13:00:21;;;;;;;;;;;17.00;80.00;;;;;;5044347;28;19913;-67
2022/09/21 13:02:47;;;;;;;;;;;17.00;80.10;;;;;;5044705;28;19920;-68
2022/09/21 13:05:22;;;;;;;;;;;17.10;80.00;;;;;;5044134;28;19917;-67
2022/09/21 13:08:03;;;;;;;;;;;17.20;80.00;;;;;;5044583;28;20518;-67
2022/09/21 13:10:37;;;;;;;;;;;17.20;80.10;;;;;;5045691;28;19962;-67
2022/09/21 13:13:06;;;;;;;;;;;17.20;80.70;;;;;;5045927;28;19988;-67
2022/09/21 13:15:40;;;;;;;;;;;17.10;81.00;;;;;;5046051;28;19913;-67
2022/09/21 13:18:17;;;;;;;;;;;17.10;81.30;;;;;;5044912;28;19917;-68
2022/09/21 13:20:43;;;;;;;;;;;17.10;81.40;;;;;;5044192;28;19917;-67
2022/09/21 13:23:41;;;;;;;;;;;17.20;81.30;;;;;;5044152;28;19916;-68
2022/09/21 13:26:10;;;;;;;;;;;17.30;81.20;;;;;;5029698;28;20412;-67
2022/09/21 13:28:40;;;;;;;;;;;17.30;81.10;;;;;;5044769;28;19964;-67
2022/09/21 13:31:15;;;;;;;;;;;17.40;81.20;;;;;;5044346;28;20366;-67
2022/09/21 13:34:00;;;;;;;;;;;17.40;80.80;;;;;;5044823;28;20400;-68
2022/09/21 13:36:34;;;;;;;;;;;17.50;80.60;;;;;;5044170;28;19983;-67
2022/09/21 13:39:03;;;;;;;;;;;17.50;80.60;;;;;;5043153;28;19920;-67
2022/09/21 13:41:28;;;;;;;;;;;17.50;80.60;;;;;;5043740;28;19970;-67
2022/09/21 13:43:57;;;;;;;;;;;17.50;80.60;;;;;;5044436;28;19912;-67
2022/09/21 13:46:34;;;;;;;;;;;17.60;80.60;;;;;;5024377;28;19913;-67
2022/09/21 13:49:15;;;;;;;;;;;17.60;80.40;;;;;;5044901;28;20386;-67
2022/09/21 13:51:52;;;;;;;;;;;17.70;80.30;;;;;;5040776;28;19913;-67
2022/09/21 13:54:20;;;;;;;;;;;17.70;80.40;;;;;;5044219;28;19917;-67
2022/09/21 13:56:46;;;;;;;;;;;17.70;80.40;;;;;;5043882;28;19942;-67
2022/09/21 13:59:23;;;;;;;;;;;17.80;80.30;;;;;;5042724;28;19976;-68
2022/09/21 14:01:49;;;;;;;;;;;17.80;80.30;;;;;;5044366;28;19913;-67
2022/09/21 14:04:19;;;;;;;;;;;17.80;80.20;;;;;;5044201;28;19919;-67
2022/09/21 14:06:46;;;;;;;;;;;17.80;79.70;;;;;;5044094;28;19917;-67
2022/09/21 14:09:39;;;;;;;;;;;17.80;80.10;;;;;;5044080;28;19912;-68
2022/09/21 14:12:07;;;;;;;;;;;17.80;80.30;;;;;;5019562;28;19936;-68
2022/09/21 14:14:37;;;;;;;;;;;17.70;80.40;;;;;;5043630;28;19917;-69
2022/09/21 14:17:04;;;;;;;;;;;17.80;81.20;;;;;;5043730;28;19913;-68
2022/09/21 14:19:30;;;;;;;;;;;17.80;80.90;;;;;;5043939;28;19920;-68
2022/09/21 14:22:02;;;;;;;;;;;17.80;80.90;;;;;;5043015;28;19932;-68
2022/09/21 14:24:41;;;;;;;;;;;17.80;80.80;;;;;;5045893;28;19913;-68
2022/09/21 14:27:26;;;;;;;;;;;17.80;80.40;;;;;;5042959;28;19917;-68
2022/09/21 14:30:01;;;;;;;;;;;17.70;80.40;;;;;;5043887;28;20462;-68
2022/09/21 14:32:33;;;;;;;;;;;17.70;80.60;;;;;;5043013;28;19912;-67
2022/09/21 14:35:05;;;;;;;;;;;17.60;80.50;;;;;;5043416;28;19951;-68
2022/09/21 14:37:32;;;;;;;;;;;17.60;80.70;;;;;;5026184;28;19928;-67